Aérodrome :
LOGIN :

S'inscrire | Disclaimer

   EN    FR    IT 

 










Légende :    VFR   VFR Marginal   IFR   IFR Intensif   IFR Très Intensif
Visi : 
Plafond : 
>= 8 km
>= 3000ft
5 à 8 km
1000 à 3000 ft
1500m à 5 km
500 à 1000 ft
800 à 1500m
200 à 500 ft
< 800m
< 200 ft
Symboles :   Orages  Brouillard  Fortes neiges  Fortes précipitations  Vent > 20 kt
SIGMETs :   Divers  Orages  Givrage  Turbulence  Onde Orograph.  Cendres Volcan.






- Altitude de l'aérodrome : 313 ft
- Code IATA : LEH


LFOH - Le Havre Octeville

DERNIER METAR :
  • 110330Z AUTO VRB02KT 9999 FEW032 08/07 Q1007

METARs EXPIRÉS :
  • 110300Z AUTO VRB02KT CAVOK 10/08 Q1007
  • 110230Z AUTO 19004KT CAVOK 10/08 Q1007
  • 110200Z AUTO 20004KT CAVOK 10/08 Q1007
  • 110130Z AUTO VRB03KT CAVOK 10/08 Q1007
  • 110100Z AUTO 20003KT CAVOK 11/07 Q1007

TAF TAF LFOH
Valide du 10 à 12h jusqu'au 11 à 12h UTC


101100Z 1012/1112 21012KT 9999 SCT030
TEMPO 1012/1021 21020G30KT 3000 SHRA BKN030TCU
PROB30
TEMPO 1013/1018 TSRA BKN030CB
BECMG 1018/1020 VRB02KT
TEMPO 1110/1112 21020G30KT 3000 SHRA BKN030CB
ATIS : +33 2 35 54 64 93



MET'MAP, la Météo Aéronautique d'un coup d'oeil ! - Copyright ORBIFLY Décembre 2007 - Disclaimer

ORBIFLY MET'MAP TEAM :

Programmation & Développement : Alexandra Zaïnal
Sur une idée originale de : Baudouin d'Aumeries
Assistance à la programmation : Marc-Olivier Méhu
Soutien technique & logistique : Manuel Goepfert

Contact : metmap@orbifly.com




SOURCES & CREDITS :

   NOAA